Nearby METAR Reports

 

KOAK - Oakland, California, USA
Distance from station: SSW 6mi, 9km
Updated: Wed, 26-Apr-2017 4:24am PDT
Overcast
Overcast
 Wind from WSW
Wind: WSW 12 mph , 19 km/h
Temperature: 61°F , 16°C
Dew Point: 55°F , 13°C
Humidity: 83%
Barometer: 30.06 inHg , 1017.9 hPa
Clouds: Overcast
Visibility: 10 miles , 16 km
Cloud details: Mostly cloudy 1000 ft
Overcast 1500 ft
2017/04/26 11:24 KOAK 261124Z 25010KT 10SM BKN010 OVC015 16/13 A3006 RMK AO2 CIG 007V012 T01560133
KHWD - Hayward, California, USA
Distance from station: SSE 8mi, 12km
Updated: Wed, 26-Apr-2017 3:54am PDT
Overcast
Overcast
 Wind from SSW
Wind: SSW 7 mph , 11 km/h
Temperature: 61°F , 16°C
Dew Point: 52°F , 11°C
Humidity: 72%
Barometer: 30.05 inHg , 1017.6 hPa
Clouds: Overcast
Visibility: 10 miles , 16 km
Cloud details: Overcast 1300 ft
2017/04/26 10:54 KHWD 261054Z AUTO 20006KT 10SM OVC013 16/11 A3005 RMK AO2 SLP183 T01560106
KSFO - San Francisco, California, USA
Distance from station: SW 15mi, 25km
Updated: Wed, 26-Apr-2017 3:56am PDT
Mostly cloudy
Mostly cloudy
 Wind from SSW
Wind: SSW 6 mph , 9 km/h
Temperature: 57°F , 14°C
Dew Point: 54°F , 12°C
Humidity: 88%
Barometer: 30.05 inHg , 1017.6 hPa
Clouds: Mostly cloudy
Visibility: 10 miles , 16 km
Cloud details: Few Clouds 800 ft
Partly cloudy 1100 ft
Mostly cloudy 1500 ft
2017/04/26 10:56 KSFO 261056Z 21005KT 10SM FEW008 SCT011 BKN015 14/12 A3005 RMK AO2 SLP174 T01390117 $
 
KCCR - Concord, California, USA
Distance from station: NNE 17mi, 27km
Updated: Wed, 26-Apr-2017 4:22am PDT
Overcast
Overcast
 Wind from SSW
Wind: SSW 8 mph , 13 km/h
Temperature: 59°F , 15°C
Dew Point: 54°F , 12°C
Humidity: 82%
Barometer: 30.03 inHg , 1016.9 hPa
Clouds: Overcast
Visibility: 10 miles , 16 km
Cloud details: Overcast 1500 ft
2017/04/26 11:22 KCCR 261122Z AUTO 21007KT 10SM OVC015 15/12 A3003 RMK AO2 T01500122
KSQL - San Carlos Airpo, California, USA
Distance from station: SSW 18mi, 29km
Updated: Wed, 26-Apr-2017 4:35am PDT
Overcast
Overcast
 Wind from calm
Wind: Calm
Temperature: 57°F , 14°C
Dew Point: 52°F , 11°C
Humidity: 82%
Barometer: 30.06 inHg , 1017.9 hPa
Clouds: Overcast
Visibility: 10 miles , 16 km
Cloud details: Partly cloudy 1600 ft
Overcast 2200 ft
2017/04/26 11:35 KSQL 261135Z AUTO 00000KT 10SM SCT016 OVC022 14/11 A3006 RMK AO2
KLVK - Livermore, California, USA
Distance from station: ESE 20mi, 31km
Updated: Wed, 26-Apr-2017 3:53am PDT
Overcast
Overcast
 Wind from SSW
Wind: SSW 6 mph , 9 km/h
Temperature: 55°F , 13°C
Dew Point: 52°F , 11°C
Humidity: 88%
Barometer: 30.03 inHg , 1016.9 hPa
Clouds: Overcast
Visibility: 10 miles , 16 km
Cloud details: Overcast 1100 ft
2017/04/26 10:53 KLVK 261053Z AUTO 21005KT 10SM OVC011 13/11 A3003 RMK AO2 SLP168 T01330111 TSNO
 
KPAO - Palo Alto, California, USA
Distance from station: S 21mi, 34km
Updated: Tue, 25-Apr-2017 8:47pm PDT
NOT Current
Mostly cloudy
Mostly cloudy
 Wind from W
Wind: W 7 mph , 11 km/h
Temperature: 59°F , 15°C
Dew Point: 52°F , 11°C
Humidity: 77%
Barometer: 30.11 inHg , 1019.6 hPa
Clouds: Mostly cloudy
Visibility: 10 miles , 16 km
Cloud details: Mostly cloudy 7000 ft
2017/04/26 03:47 KPAO 260347Z 26006KT 10SM BKN070 15/11 A3011 RMK LAST
KHAF - Half Moon Bay, California, USA
Distance from station: SW 25mi, 41km
Updated: Wed, 26-Apr-2017 4:35am PDT
Mist, Overcast
Mist, Overcast
 Wind from calm
Wind: Calm
Temperature: 55°F , 13°C
Dew Point: 54°F , 12°C
Humidity: 94%
Barometer: 30.08 inHg , 1018.6 hPa
Summary: Mist
Clouds: Overcast
Visibility: 3/4 mile , 5 km
Cloud details: Overcast 200 ft
2017/04/26 11:35 KHAF 261135Z AUTO 00000KT 3/4SM BR OVC002 13/12 A3008 RMK AO2
KNUQ - Moffett Nas/Mtn, California, USA
Distance from station: SSE 26mi, 42km
Updated: Wed, 26-Apr-2017 3:56am PDT
Few Clouds
Few Clouds
 Wind from S
Wind: S 3 mph , 6 km/h
Temperature: 57°F , 14°C
Dew Point: 52°F , 11°C
Humidity: 82%
Barometer: 30.06 inHg , 1017.9 hPa
Clouds: Few Clouds
Visibility: 10 miles , 16 km
Cloud details: Few Clouds 2100 ft
2017/04/26 10:56 KNUQ 261056Z 17003KT 10SM FEW021 14/11 A3006 RMK AO2 SLP182 T01390106
 
KAPC - Napa, California, USA
Distance from station: NNW 30mi, 49km
Updated: Wed, 26-Apr-2017 3:54am PDT
Overcast
Overcast
 Wind from W
Wind: W 8 mph , 13 km/h
Temperature: 57°F , 14°C
Dew Point: 54°F , 12°C
Humidity: 88%
Barometer: 30.03 inHg , 1016.9 hPa
Clouds: Overcast
Visibility: 10 miles , 16 km
Cloud details: Overcast 800 ft
2017/04/26 10:54 KAPC 261054Z AUTO 27007KT 10SM OVC008 14/12 A3003 RMK AO2 SLP161 T01440122
KSJC - San Jose, California, USA
Distance from station: SSE 31mi, 50km
Updated: Wed, 26-Apr-2017 4:21am PDT
Overcast
Overcast
 Wind from calm
Wind: Calm
Temperature: 57°F , 14°C
Dew Point: 50°F , 10°C
Humidity: 77%
Barometer: 30.05 inHg , 1017.6 hPa
Clouds: Overcast
Visibility: 10 miles , 16 km
Cloud details: Few Clouds 2300 ft
Partly cloudy 6500 ft
Overcast 10000 ft
2017/04/26 11:21 KSJC 261121Z AUTO 00000KT 10SM FEW023 SCT065 OVC100 14/10 A3005 RMK AO2 T01440100
KDVO - Novato/Gnoss Fld, California, USA
Distance from station: NW 34mi, 54km
Updated: Wed, 26-Apr-2017 4:35am PDT
Overcast
Overcast
 Wind from SSW
Wind: SSW 6 mph , 9 km/h
Temperature: 57°F , 14°C
Dew Point: 55°F , 13°C
Humidity: 94%
Barometer: 30.05 inHg , 1017.6 hPa
Clouds: Overcast
Visibility: 10 miles , 16 km
Cloud details: Overcast 1200 ft
2017/04/26 11:35 KDVO 261135Z AUTO 21005KT 10SM OVC012 14/13 A3005 RMK AO2
 
KRHV - San Jose/Reid, California, USA
Distance from station: SSE 37mi, 59km
Updated: Tue, 25-Apr-2017 9:47pm PDT
NOT Current
Mostly cloudy
Mostly cloudy
 Wind from NW
Wind: NW 6 mph , 9 km/h
Temperature: 59°F , 15°C
Dew Point: 50°F , 10°C
Humidity: 72%
Barometer: 30.14 inHg , 1020.7 hPa
Clouds: Mostly cloudy
Visibility: 10 miles , 16 km
Cloud details: Mostly cloudy 3000 ft
2017/04/26 04:47 KRHV 260447Z 32005KT 10SM BKN030 15/10 A3014 RMK LAST
KSUU - Travis Afb/Fairf, California, USA
Distance from station: NNE 37mi, 59km
Updated: Wed, 26-Apr-2017 4:33am PDT
Overcast
Overcast
 Wind from WSW
Wind: WSW 16 mph , 26 km/h, Gust: 24 mph , 39 km/h
Temperature: 57°F , 14°C
Dew Point: 55°F , 13°C
Humidity: 94%
Barometer: 29.98 inHg , 1015.2 hPa
Clouds: Overcast
Visibility: 10 miles , 16 km
Cloud details: Mostly cloudy 1000 ft
Mostly cloudy 7000 ft
Overcast 11000 ft
2017/04/26 11:33 KSUU 261133Z AUTO 25014G21KT 10SM BKN010 BKN070 OVC110 14/13 A2998 RMK AO2 SLP159 $
KO69 - Petaluma, California, USA
Distance from station: NW 41mi, 66km
Updated: Wed, 26-Apr-2017 4:35am PDT
Mist, Overcast
Mist, Overcast
 Wind from calm
Wind: Calm
Temperature: 55°F , 13°C
Dew Point: 55°F , 13°C
Humidity: 100%
Barometer: 30.05 inHg , 1017.6 hPa
Summary: Mist
Clouds: Overcast
Visibility: 1 1/4 miles , 2 km
Cloud details: Overcast 300 ft
2017/04/26 11:35 KO69 261135Z AUTO 00000KT 1 1/4SM BR OVC003 13/13 A3005 RMK A01
 
KVCB - Vacaville, California, USA
Distance from station: NNE 44mi, 71km
Updated: Wed, 26-Apr-2017 3:53am PDT
Overcast
Overcast
 Wind from SSW
Wind: SSW 13 mph , 20 km/h
Temperature: 59°F , 15°C
Dew Point: 52°F , 11°C
Humidity: 77%
Barometer: 29.99 inHg , 1015.6 hPa
Clouds: Overcast
Visibility: 10 miles , 16 km
Cloud details: Partly cloudy 8000 ft
Overcast 11000 ft
2017/04/26 10:53 KVCB 261053Z AUTO 21011KT 10SM SCT080 OVC110 15/11 A2999 RMK AO2 SLP156 T01500111 TSNO